createdAt,value
2023-08-12T00:02:09.293Z,15.04
2023-08-12T00:04:38.672Z,15.01
2023-08-12T00:07:07.437Z,15.00
2023-08-12T00:09:36.454Z,15.08
2023-08-12T00:12:06.115Z,15.03
2023-08-12T00:14:35.243Z,15.00
2023-08-12T00:17:04.689Z,14.92
2023-08-12T00:19:35.141Z,14.90
2023-08-12T00:22:05.736Z,14.87
2023-08-12T00:24:34.859Z,14.84
2023-08-12T00:27:03.580Z,14.86
2023-08-12T00:29:32.619Z,14.87
2023-08-12T00:32:01.966Z,14.80
2023-08-12T00:34:31.155Z,14.81
2023-08-12T00:37:01.553Z,14.80
2023-08-12T00:39:30.631Z,14.77
2023-08-12T00:41:59.359Z,14.81
2023-08-12T00:44:28.492Z,14.84
2023-08-12T00:46:57.397Z,14.79
2023-08-12T00:49:30.155Z,14.77
2023-08-12T00:52:00.856Z,14.78
2023-08-12T00:54:31.166Z,14.75
2023-08-12T00:57:01.456Z,14.67
2023-08-12T00:59:31.225Z,14.64
2023-08-12T01:02:00.195Z,14.67
2023-08-12T01:04:30.133Z,14.59
2023-08-12T01:07:00.372Z,14.62
2023-08-12T01:09:30.932Z,14.57
2023-08-12T01:12:08.980Z,14.59
2023-08-12T01:14:58.340Z,14.55
2023-08-12T01:17:31.099Z,14.56
2023-08-12T01:20:04.235Z,14.58
2023-08-12T01:22:37.946Z,14.55
2023-08-12T01:25:09.705Z,14.48
2023-08-12T01:27:38.701Z,14.41
2023-08-12T01:30:12.230Z,14.43
2023-08-12T01:32:50.257Z,14.46
2023-08-12T01:35:26.231Z,14.43
2023-08-12T01:37:58.060Z,14.32
2023-08-12T01:40:33.648Z,14.27
2023-08-12T01:43:04.501Z,14.29
2023-08-12T01:45:34.051Z,14.27
2023-08-12T01:48:05.134Z,14.28
2023-08-12T01:50:34.406Z,14.31
2023-08-12T01:53:03.411Z,14.27
2023-08-12T01:55:34.117Z,14.24
2023-08-12T01:58:03.039Z,14.21
2023-08-12T02:00:33.012Z,14.22
2023-08-12T02:03:01.975Z,14.16
2023-08-12T02:05:31.211Z,14.13
2023-08-12T02:08:00.148Z,14.01
2023-08-12T02:10:29.249Z,14.05
2023-08-12T02:12:59.283Z,14.05
2023-08-12T02:15:28.438Z,14.00
2023-08-12T02:17:57.271Z,14.02
2023-08-12T02:20:26.711Z,14.00
2023-08-12T02:22:55.452Z,13.95
2023-08-12T02:25:24.587Z,13.92
2023-08-12T02:27:53.333Z,13.90
2023-08-12T02:30:24.159Z,13.98
2023-08-12T02:32:53.027Z,13.94
2023-08-12T02:35:23.150Z,13.97
2023-08-12T02:37:51.912Z,13.98
2023-08-12T02:40:21.024Z,13.95
2023-08-12T02:42:50.006Z,13.95
2023-08-12T02:45:21.378Z,13.95
2023-08-12T02:47:51.600Z,13.93
2023-08-12T02:50:20.727Z,13.88
2023-08-12T02:52:49.431Z,13.85
2023-08-12T02:55:18.941Z,13.79
2023-08-12T02:57:47.750Z,13.88
2023-08-12T03:00:18.275Z,13.87
2023-08-12T03:02:47.293Z,13.83
2023-08-12T03:05:18.451Z,13.80
2023-08-12T03:07:47.406Z,13.77
2023-08-12T03:10:16.596Z,13.74
2023-08-12T03:12:45.708Z,13.72
2023-08-12T03:15:15.013Z,13.72
2023-08-12T03:17:43.940Z,13.66
2023-08-12T03:20:14.036Z,13.61
2023-08-12T03:22:45.229Z,13.61
2023-08-12T03:25:16.136Z,13.68
2023-08-12T03:27:46.701Z,13.71
2023-08-12T03:30:16.320Z,13.73
2023-08-12T03:32:46.528Z,13.72
2023-08-12T03:35:19.259Z,13.67
2023-08-12T03:37:52.368Z,13.61
2023-08-12T03:40:21.975Z,13.58
2023-08-12T03:42:51.659Z,13.57
2023-08-12T03:45:24.649Z,13.47
2023-08-12T03:47:54.005Z,13.54
2023-08-12T03:50:24.115Z,13.56
2023-08-12T03:52:54.374Z,13.58
2023-08-12T03:55:23.760Z,13.60
2023-08-12T03:57:53.107Z,13.70
2023-08-12T04:00:23.247Z,13.72
2023-08-12T04:02:56.794Z,13.77
2023-08-12T04:05:26.003Z,13.77
2023-08-12T04:07:57.146Z,13.79
2023-08-12T04:10:26.400Z,13.81
2023-08-12T04:12:55.806Z,13.95
2023-08-12T04:15:25.204Z,13.97
2023-08-12T04:17:54.102Z,14.00
2023-08-12T04:20:23.528Z,14.06
2023-08-12T04:22:52.595Z,14.11
2023-08-12T04:25:23.896Z,14.17
2023-08-12T04:27:53.607Z,14.27
2023-08-12T04:30:23.916Z,14.33
2023-08-12T04:32:52.855Z,14.38
2023-08-12T04:39:54.973Z,14.48
2023-08-12T04:42:25.523Z,14.57
2023-08-12T04:44:54.867Z,14.70
2023-08-12T04:47:24.033Z,14.77
2023-08-12T04:49:54.584Z,14.85
2023-08-12T04:52:23.549Z,14.95
2023-08-12T04:54:55.679Z,15.05
2023-08-12T04:57:28.406Z,15.17
2023-08-12T04:59:57.679Z,15.25
2023-08-12T05:02:27.493Z,15.33
2023-08-12T05:04:57.534Z,15.43
2023-08-12T05:07:26.462Z,15.54
2023-08-12T05:09:56.928Z,15.67
2023-08-12T05:12:28.280Z,15.79
2023-08-12T05:14:57.442Z,15.89
2023-08-12T05:17:26.657Z,16.02
2023-08-12T05:19:56.142Z,16.12
2023-08-12T05:22:25.407Z,16.24
2023-08-12T05:24:54.608Z,16.36
2023-08-12T05:27:23.668Z,16.54
2023-08-12T05:29:54.273Z,16.66
2023-08-12T05:32:23.067Z,16.84
2023-08-12T05:34:54.401Z,17.00
2023-08-12T05:37:23.221Z,17.22
2023-08-12T05:39:52.168Z,17.42
2023-08-12T05:42:20.996Z,17.71
2023-08-12T05:44:50.062Z,17.99
2023-08-12T05:47:20.126Z,18.29
2023-08-12T05:49:49.212Z,18.60
2023-08-12T05:52:18.129Z,19.02
2023-08-12T05:54:47.234Z,19.32
2023-08-12T05:57:16.051Z,19.62
2023-08-12T05:59:45.102Z,19.91
2023-08-12T06:02:14.084Z,20.13
2023-08-12T06:04:44.740Z,20.47
2023-08-12T06:07:13.537Z,20.71
2023-08-12T06:09:42.617Z,20.85
2023-08-12T06:12:11.673Z,21.03
2023-08-12T06:14:41.065Z,21.23
2023-08-12T06:17:09.916Z,21.42
2023-08-12T06:19:38.990Z,21.59
2023-08-12T06:22:09.263Z,21.81
2023-08-12T06:24:38.431Z,21.98
2023-08-12T06:27:07.656Z,22.09
2023-08-12T06:29:36.799Z,22.04
2023-08-12T06:32:05.770Z,22.21
2023-08-12T06:34:34.797Z,22.34
2023-08-12T06:37:03.680Z,22.48
2023-08-12T06:39:34.080Z,22.62
2023-08-12T06:42:02.899Z,22.63
2023-08-12T06:44:32.954Z,22.69
2023-08-12T06:47:01.761Z,22.78
2023-08-12T06:49:30.849Z,22.87
2023-08-12T06:51:59.776Z,23.07
2023-08-12T06:54:28.918Z,22.96
2023-08-12T06:56:59.082Z,23.02
2023-08-12T06:59:28.145Z,23.04
2023-08-12T07:01:57.003Z,23.22
2023-08-12T07:04:27.289Z,23.24
2023-08-12T07:06:56.149Z,23.25
2023-08-12T07:09:25.175Z,23.38
2023-08-12T07:11:54.110Z,23.43
2023-08-12T07:14:24.549Z,23.46
2023-08-12T07:16:53.568Z,23.70
2023-08-12T07:19:23.014Z,23.82
2023-08-12T07:21:51.832Z,23.95
2023-08-12T07:24:21.014Z,24.06
2023-08-12T07:26:49.860Z,23.94
2023-08-12T07:29:18.881Z,23.99
2023-08-12T07:31:49.190Z,23.99
2023-08-12T07:34:18.374Z,24.01
2023-08-12T07:36:47.316Z,24.04
2023-08-12T07:39:16.473Z,23.98
2023-08-12T07:41:45.392Z,23.93
2023-08-12T07:44:14.577Z,23.93
2023-08-12T07:46:43.356Z,23.88
2023-08-12T07:49:13.988Z,24.00
2023-08-12T07:51:42.857Z,24.08
2023-08-12T07:54:11.957Z,24.31
2023-08-12T07:56:40.766Z,24.44
2023-08-12T07:59:11.564Z,24.51
2023-08-12T08:01:40.470Z,24.65
2023-08-12T08:04:09.554Z,24.63
2023-08-12T08:06:39.860Z,24.50
2023-08-12T08:09:09.110Z,24.74
2023-08-12T08:11:37.930Z,24.80
2023-08-12T08:14:07.124Z,24.83
2023-08-12T08:16:36.119Z,24.93
2023-08-12T08:19:05.531Z,25.03
2023-08-12T08:21:34.562Z,25.23
2023-08-12T08:24:05.469Z,25.16
2023-08-12T08:26:34.414Z,24.98
2023-08-12T08:29:04.195Z,25.27
2023-08-12T08:31:32.995Z,25.24
2023-08-12T08:34:02.214Z,25.26
2023-08-12T08:36:31.086Z,25.44
2023-08-12T08:39:00.199Z,25.44
2023-08-12T08:41:33.685Z,25.63
2023-08-12T08:44:05.452Z,25.63
2023-08-12T08:46:34.432Z,25.64
2023-08-12T08:49:04.504Z,25.75
2023-08-12T08:51:34.157Z,25.86
2023-08-12T08:54:06.417Z,26.06
2023-08-12T08:56:37.739Z,25.98
2023-08-12T08:59:12.013Z,25.85
2023-08-12T09:01:42.390Z,25.91
2023-08-12T09:04:13.292Z,26.14
2023-08-12T09:06:43.788Z,26.18
2023-08-12T09:09:18.487Z,26.19
2023-08-12T09:11:50.181Z,26.18
2023-08-12T09:14:19.654Z,26.24
2023-08-12T09:16:48.512Z,26.31
2023-08-12T09:19:17.943Z,26.48
2023-08-12T09:21:54.409Z,26.62
2023-08-12T09:24:27.044Z,26.73
2023-08-12T09:26:57.695Z,26.56
2023-08-12T09:29:32.149Z,26.85
2023-08-12T09:32:14.204Z,27.25
2023-08-12T09:34:49.880Z,27.87
2023-08-12T09:37:19.398Z,28.02
2023-08-12T09:39:50.416Z,27.98
2023-08-12T09:42:21.336Z,28.06
2023-08-12T09:44:50.465Z,28.19
2023-08-12T09:47:19.415Z,27.95
2023-08-12T09:49:48.527Z,28.03
2023-08-12T09:52:18.686Z,28.16
2023-08-12T09:54:49.236Z,27.97
2023-08-12T09:57:23.961Z,27.82
2023-08-12T09:59:56.246Z,28.34
2023-08-12T10:02:26.640Z,28.34
2023-08-12T10:04:59.061Z,28.09
2023-08-12T10:07:28.561Z,28.28
2023-08-12T10:09:58.543Z,28.25
2023-08-12T10:12:29.029Z,28.28
2023-08-12T10:14:59.803Z,28.49
2023-08-12T10:17:42.763Z,28.70
2023-08-12T10:20:16.793Z,29.14
2023-08-12T10:22:46.977Z,29.15
2023-08-12T10:25:17.070Z,29.52
2023-08-12T10:27:47.423Z,29.72
2023-08-12T10:30:16.964Z,29.49
2023-08-12T10:32:47.626Z,29.41
2023-08-12T10:35:16.783Z,29.87
2023-08-12T10:37:52.589Z,30.53
2023-08-12T10:40:25.346Z,30.82
2023-08-12T10:42:55.682Z,31.12
2023-08-12T10:45:25.101Z,31.04
2023-08-12T10:48:17.437Z,31.21
2023-08-12T10:50:48.435Z,31.48
2023-08-12T10:53:30.682Z,31.42
2023-08-12T10:56:03.124Z,31.24
2023-08-12T10:58:43.007Z,31.13
2023-08-12T11:01:18.821Z,31.08
2023-08-12T11:03:50.108Z,30.81
2023-08-12T11:06:21.748Z,30.80
2023-08-12T11:08:54.961Z,30.86
2023-08-12T11:11:26.181Z,30.69
2023-08-12T11:13:59.146Z,30.66
2023-08-12T11:16:37.768Z,30.30
2023-08-12T11:19:08.131Z,30.85
2023-08-12T11:21:39.352Z,30.70
2023-08-12T11:24:09.329Z,30.80
2023-08-12T11:26:43.620Z,31.00
2023-08-12T11:29:14.678Z,31.27
2023-08-12T11:31:43.945Z,31.47
2023-08-12T11:34:14.044Z,31.59
2023-08-12T11:36:44.342Z,31.69
2023-08-12T11:39:13.154Z,31.93
2023-08-12T11:41:42.188Z,31.45
2023-08-12T11:44:18.792Z,30.45
2023-08-12T11:46:48.019Z,30.58
2023-08-12T11:49:16.839Z,30.61
2023-08-12T11:51:49.818Z,30.32
2023-08-12T11:54:19.022Z,30.61
2023-08-12T11:56:48.777Z,31.48
2023-08-12T11:59:19.002Z,31.87
2023-08-12T12:01:52.322Z,32.07
2023-08-12T12:04:23.865Z,32.15
2023-08-12T12:06:52.963Z,31.55
2023-08-12T12:09:22.434Z,30.98
2023-08-12T12:11:55.440Z,30.06
2023-08-12T12:14:26.989Z,29.50
2023-08-12T12:16:56.215Z,29.14
2023-08-12T12:19:25.854Z,28.95
2023-08-12T12:21:55.935Z,28.66
2023-08-12T12:24:24.832Z,28.51
2023-08-12T12:26:54.208Z,28.20
2023-08-12T12:29:23.187Z,27.96
2023-08-12T12:31:53.673Z,27.80
2023-08-12T12:34:22.861Z,27.88
2023-08-12T12:36:51.866Z,27.63
2023-08-12T12:39:20.859Z,27.58
2023-08-12T12:41:49.943Z,27.77
2023-08-12T12:44:18.738Z,27.92
2023-08-12T12:46:47.878Z,27.90
2023-08-12T12:49:18.080Z,27.85
2023-08-12T12:51:47.216Z,27.90
2023-08-12T12:54:16.014Z,27.96
2023-08-12T12:56:45.199Z,27.86
2023-08-12T12:59:15.736Z,27.96
2023-08-12T13:01:45.026Z,27.95
2023-08-12T13:04:13.806Z,28.02
2023-08-12T13:06:44.685Z,27.98
2023-08-12T13:09:14.721Z,27.95
2023-08-12T13:11:43.812Z,27.90
2023-08-12T13:14:12.576Z,27.94
2023-08-12T13:16:41.774Z,27.97
2023-08-12T13:19:10.613Z,28.04
2023-08-12T13:21:39.701Z,27.94
2023-08-12T13:24:09.990Z,27.94
2023-08-12T13:26:39.184Z,27.92
2023-08-12T13:29:08.082Z,28.06
2023-08-12T13:31:37.304Z,28.11
2023-08-12T13:34:06.337Z,28.05
2023-08-12T13:36:35.412Z,27.91
2023-08-12T13:39:04.364Z,27.89
2023-08-12T13:41:34.956Z,28.01
2023-08-12T13:44:04.665Z,27.83
2023-08-12T13:46:33.789Z,27.83
2023-08-12T13:49:02.505Z,27.88
2023-08-12T13:51:33.053Z,28.18
2023-08-12T13:54:02.064Z,28.25
2023-08-12T13:56:32.444Z,28.14
2023-08-12T13:59:02.738Z,28.15
2023-08-12T14:01:31.900Z,28.13
2023-08-12T14:04:00.688Z,28.62
2023-08-12T14:06:29.988Z,28.81
2023-08-12T14:08:58.888Z,28.65
2023-08-12T14:11:28.022Z,28.54
2023-08-12T14:13:59.738Z,28.46
2023-08-12T14:16:30.267Z,28.44
2023-08-12T14:18:59.145Z,28.26
2023-08-12T14:21:28.282Z,28.26
2023-08-12T14:23:57.106Z,28.16
2023-08-12T14:26:26.196Z,28.07
2023-08-12T14:28:55.032Z,28.14
2023-08-12T14:31:24.091Z,28.21
2023-08-12T14:33:54.185Z,28.13
2023-08-12T14:36:23.241Z,27.96
2023-08-12T14:38:53.140Z,28.08
2023-08-12T14:41:22.282Z,28.12
2023-08-12T14:43:51.159Z,28.20
2023-08-12T14:46:20.329Z,28.25
2023-08-12T14:48:49.081Z,28.28
2023-08-12T14:51:19.557Z,28.15
2023-08-12T14:53:49.108Z,28.16
2023-08-12T14:56:18.554Z,28.05
2023-08-12T14:58:47.350Z,28.08
2023-08-12T15:01:17.410Z,28.12
2023-08-12T15:03:46.466Z,28.14
2023-08-12T15:06:15.976Z,28.19
2023-08-12T15:08:46.202Z,28.12
2023-08-12T15:11:15.325Z,27.95
2023-08-12T15:13:44.259Z,27.99
2023-08-12T15:16:13.499Z,28.07
2023-08-12T15:18:43.615Z,27.99
2023-08-12T15:21:12.749Z,27.91
2023-08-12T15:23:41.490Z,27.84
2023-08-12T15:26:12.235Z,27.94
2023-08-12T15:28:41.250Z,27.95
2023-08-12T15:31:10.337Z,27.92
2023-08-12T15:33:39.280Z,27.95
2023-08-12T15:36:08.584Z,28.04
2023-08-12T15:38:38.085Z,28.10
2023-08-12T15:41:17.002Z,28.19
2023-08-12T15:43:46.302Z,28.30
2023-08-12T15:46:15.691Z,28.26
2023-08-12T15:48:44.663Z,28.27
2023-08-12T15:51:13.732Z,28.17
2023-08-12T15:53:42.683Z,28.20
2023-08-12T15:56:11.823Z,28.10
2023-08-12T15:58:41.982Z,28.20
2023-08-12T16:01:12.016Z,28.26
2023-08-12T16:03:41.042Z,28.33
2023-08-12T16:06:10.241Z,28.53
2023-08-12T16:08:39.847Z,28.62
2023-08-12T16:11:08.900Z,28.86
2023-08-12T16:13:37.874Z,29.11
2023-08-12T16:16:08.368Z,29.14
2023-08-12T16:18:37.222Z,29.08
2023-08-12T16:21:06.311Z,28.77
2023-08-12T16:23:35.128Z,28.67
2023-08-12T16:26:04.257Z,28.61
2023-08-12T16:28:33.178Z,28.63
2023-08-12T16:31:03.153Z,28.72
2023-08-12T16:33:33.396Z,28.67
2023-08-12T16:36:02.443Z,28.51
2023-08-12T16:38:31.248Z,28.40
2023-08-12T16:41:00.335Z,28.18
2023-08-12T16:43:29.187Z,28.02
2023-08-12T16:45:58.529Z,27.83
2023-08-12T16:48:27.391Z,27.62
2023-08-12T16:50:57.837Z,27.47
2023-08-12T16:53:26.739Z,27.22
2023-08-12T16:55:56.230Z,27.05
2023-08-12T16:58:25.118Z,26.86
2023-08-12T17:00:54.141Z,26.66
2023-08-12T17:03:23.054Z,26.50
2023-08-12T17:05:52.166Z,26.30
2023-08-12T17:08:22.251Z,26.16
2023-08-12T17:10:51.342Z,26.04
2023-08-12T17:13:21.288Z,25.89
2023-08-12T17:15:50.463Z,25.77
2023-08-12T17:18:19.187Z,25.66
2023-08-12T17:20:48.273Z,25.54
2023-08-12T17:23:17.018Z,25.39
2023-08-12T17:25:47.559Z,25.32
2023-08-12T17:28:16.524Z,25.19
2023-08-12T17:30:45.649Z,25.07
2023-08-12T17:33:14.413Z,24.95
2023-08-12T17:35:43.742Z,24.80
2023-08-12T17:38:14.121Z,24.73
2023-08-12T17:40:43.251Z,24.58
2023-08-12T17:43:14.392Z,24.55
2023-08-12T17:45:44.816Z,24.39
2023-08-12T17:48:13.650Z,24.26
2023-08-12T17:50:42.746Z,24.14
2023-08-12T17:53:11.543Z,23.95
2023-08-12T17:55:40.823Z,23.83
2023-08-12T17:58:09.623Z,23.72
2023-08-12T18:00:40.262Z,23.64
2023-08-12T18:03:09.357Z,23.62
2023-08-12T18:05:38.634Z,23.53
2023-08-12T18:08:07.951Z,23.48
2023-08-12T18:10:37.012Z,23.39
2023-08-12T18:13:06.000Z,23.36
2023-08-12T18:15:35.125Z,23.25
2023-08-12T18:18:05.656Z,23.12
2023-08-12T18:20:34.875Z,23.00
2023-08-12T18:23:04.204Z,22.99
2023-08-12T18:25:33.549Z,22.92
2023-08-12T18:28:02.828Z,22.86
2023-08-12T18:30:33.419Z,22.86
2023-08-12T18:33:04.284Z,22.84
2023-08-12T18:35:35.155Z,22.78
2023-08-12T18:38:04.067Z,22.70
2023-08-12T18:40:34.018Z,22.68
2023-08-12T18:43:03.046Z,22.68
2023-08-12T18:45:32.150Z,22.63
2023-08-12T18:48:01.016Z,22.57
2023-08-12T18:50:30.160Z,22.54
2023-08-12T18:53:00.326Z,22.53
2023-08-12T18:55:29.715Z,22.49
2023-08-12T18:57:58.514Z,22.41
2023-08-12T19:00:27.782Z,22.31
2023-08-12T19:02:56.582Z,22.27
2023-08-12T19:05:25.793Z,22.22
2023-08-12T19:07:54.635Z,22.23
2023-08-12T19:10:25.410Z,22.18
2023-08-12T19:12:54.130Z,22.16
2023-08-12T19:15:23.477Z,22.15
2023-08-12T19:17:52.404Z,22.14
2023-08-12T19:20:21.520Z,22.10
2023-08-12T19:22:50.640Z,22.11
2023-08-12T19:25:19.935Z,22.08
2023-08-12T19:27:50.209Z,22.07
2023-08-12T19:30:20.872Z,22.01
2023-08-12T19:32:51.149Z,21.90
2023-08-12T19:35:21.547Z,21.84
2023-08-12T19:37:52.995Z,21.76
2023-08-12T19:40:22.443Z,21.65
2023-08-12T19:42:52.630Z,21.53
2023-08-12T19:45:22.122Z,21.50
2023-08-12T19:47:51.016Z,21.46
2023-08-12T19:50:20.404Z,21.39
2023-08-12T19:52:50.428Z,21.43
2023-08-12T19:55:19.878Z,21.40
2023-08-12T19:57:48.651Z,21.34
2023-08-12T20:00:19.178Z,21.24
2023-08-12T20:02:49.044Z,21.21
2023-08-12T20:05:20.492Z,21.19
2023-08-12T20:07:50.680Z,21.09
2023-08-12T20:10:22.634Z,21.07
2023-08-12T20:12:51.853Z,20.98
2023-08-12T20:15:22.534Z,20.89
2023-08-12T20:17:51.513Z,20.86
2023-08-12T20:20:20.875Z,20.82
2023-08-12T20:23:03.895Z,20.70
2023-08-12T20:25:37.885Z,20.62
2023-08-12T20:28:08.303Z,20.53
2023-08-12T20:30:38.970Z,20.48
2023-08-12T20:33:08.260Z,20.47
2023-08-12T20:35:37.487Z,20.48
2023-08-12T20:38:06.780Z,20.47
2023-08-12T20:40:35.907Z,20.41
2023-08-12T20:43:05.364Z,20.32
2023-08-12T20:45:34.504Z,20.23
2023-08-12T20:48:05.288Z,20.11
2023-08-12T20:50:34.818Z,20.07
2023-08-12T20:53:04.297Z,20.08
2023-08-12T20:55:33.820Z,20.07
2023-08-12T20:58:03.015Z,19.97
2023-08-12T21:00:32.091Z,19.88
2023-08-12T21:03:01.002Z,19.85
2023-08-12T21:05:32.892Z,19.78
2023-08-12T21:08:01.798Z,19.72
2023-08-12T21:10:30.925Z,19.72
2023-08-12T21:12:59.769Z,19.66
2023-08-12T21:15:28.863Z,19.60
2023-08-12T21:17:57.784Z,19.55
2023-08-12T21:20:26.928Z,19.48
2023-08-12T21:22:57.071Z,19.45
2023-08-12T21:25:26.195Z,19.37
2023-08-12T21:27:55.045Z,19.38
2023-08-12T21:30:24.541Z,19.38
2023-08-12T21:32:53.457Z,19.38
2023-08-12T21:35:22.690Z,19.39
2023-08-12T21:37:51.487Z,19.38
2023-08-12T21:40:21.944Z,19.38
2023-08-12T21:42:50.798Z,19.34
2023-08-12T21:45:20.075Z,19.33
2023-08-12T21:47:49.189Z,19.33
2023-08-12T21:50:18.588Z,19.28
2023-08-12T21:52:47.467Z,19.29
2023-08-12T21:55:17.034Z,19.28
2023-08-12T21:57:47.180Z,19.26
2023-08-12T22:00:17.308Z,19.18
2023-08-12T22:02:48.716Z,19.09
2023-08-12T22:05:18.224Z,19.06
2023-08-12T22:07:47.407Z,19.03
2023-08-12T22:10:16.529Z,18.98
2023-08-12T22:12:48.037Z,18.97
2023-08-12T22:15:17.294Z,18.93
2023-08-12T22:17:48.974Z,18.86
2023-08-12T22:20:18.708Z,18.76
2023-08-12T22:22:47.547Z,18.74
2023-08-12T22:25:16.764Z,18.66
2023-08-12T22:27:46.947Z,18.65
2023-08-12T22:30:16.053Z,18.70
2023-08-12T22:32:45.210Z,18.61
2023-08-12T22:35:14.608Z,18.63
2023-08-12T22:37:43.451Z,18.58
2023-08-12T22:40:12.830Z,18.54
2023-08-12T22:42:41.672Z,18.54
2023-08-12T22:45:12.605Z,18.52
2023-08-12T22:47:41.467Z,18.43
2023-08-12T22:50:13.417Z,18.31
2023-08-12T22:52:43.329Z,18.27
2023-08-12T22:55:13.287Z,18.25
2023-08-12T22:57:42.145Z,18.29
2023-08-12T23:00:13.895Z,18.37
2023-08-12T23:02:42.886Z,18.40
2023-08-12T23:05:12.208Z,18.42
2023-08-12T23:07:41.030Z,18.39
2023-08-12T23:10:12.276Z,18.34
2023-08-12T23:12:41.110Z,18.31
2023-08-12T23:15:12.604Z,18.31
2023-08-12T23:17:41.573Z,18.31
2023-08-12T23:20:11.691Z,18.36
2023-08-12T23:22:40.651Z,18.28
2023-08-12T23:25:10.988Z,18.25
2023-08-12T23:27:39.826Z,18.21
2023-08-12T23:30:15.071Z,18.21
2023-08-12T23:32:45.520Z,18.20
2023-08-12T23:35:19.158Z,18.11
2023-08-12T23:37:49.173Z,18.15
2023-08-12T23:40:18.369Z,18.24
2023-08-12T23:42:47.287Z,18.23
2023-08-12T23:45:16.494Z,18.21
2023-08-12T23:47:47.037Z,18.20
2023-08-12T23:50:16.355Z,18.18
2023-08-12T23:57:17.467Z,18.09
2023-08-12T23:59:46.252Z,18.01
